TimeCDT,TemperatureF,Dew PointF,Humidity,Sea Level PressureIn,VisibilityMPH,Wind Direction,Wind SpeedMPH,Gust SpeedMPH,PrecipitationIn,Events,Conditions,WindDirDegrees,DateUTC
12:54 AM,64.0,57.9,80,30.06,10.0,SSE,6.9,-,N/A,,Mostly Cloudy,160,2013-09-18 05:54:00
1:54 AM,64.0,57.9,80,30.05,10.0,SSE,6.9,-,N/A,,Overcast,150,2013-09-18 06:54:00
2:54 AM,64.0,57.9,80,30.04,10.0,SE,5.8,-,N/A,,Mostly Cloudy,140,2013-09-18 07:54:00
3:54 AM,64.0,59.0,84,30.02,9.0,SSE,6.9,-,N/A,,Scattered Clouds,150,2013-09-18 08:54:00
4:54 AM,64.0,60.1,87,30.01,7.0,SSE,4.6,-,N/A,,Mostly Cloudy,150,2013-09-18 09:54:00
5:54 AM,64.0,62.1,93,30.01,5.0,SSE,4.6,-,N/A,,Scattered Clouds,150,2013-09-18 10:54:00
6:54 AM,64.9,62.1,90,30.01,6.0,SSE,6.9,-,N/A,,Scattered Clouds,160,2013-09-18 11:54:00
7:54 AM,66.9,63.0,87,30.01,5.0,South,9.2,-,0.00,,Clear,170,2013-09-18 12:54:00
8:54 AM,71.1,64.0,78,30.01,8.0,South,13.8,19.6,N/A,,Clear,180,2013-09-18 13:54:00
9:54 AM,75.0,64.9,71,30.01,10.0,South,16.1,23.0,N/A,,Partly Cloudy,190,2013-09-18 14:54:00
10:54 AM,78.1,64.9,64,30.00,10.0,South,16.1,24.2,N/A,,Scattered Clouds,190,2013-09-18 15:54:00
11:54 AM,80.1,66.0,62,29.99,10.0,SSW,16.1,-,N/A,,Partly Cloudy,200,2013-09-18 16:54:00
12:54 PM,84.9,66.9,55,29.97,10.0,SSW,12.7,-,N/A,,Partly Cloudy,210,2013-09-18 17:54:00
1:54 PM,86.0,68.0,55,29.94,10.0,SW,9.2,19.6,N/A,,Clear,220,2013-09-18 18:54:00
2:54 PM,87.1,66.9,51,29.92,10.0,South,12.7,21.9,N/A,,Clear,180,2013-09-18 19:54:00
3:54 PM,86.0,68.0,55,29.90,10.0,South,10.4,18.4,N/A,,Clear,180,2013-09-18 20:54:00
4:54 PM,87.1,68.0,53,29.89,10.0,South,15.0,20.7,N/A,,Clear,190,2013-09-18 21:54:00
5:54 PM,84.9,68.0,57,29.89,10.0,South,12.7,-,N/A,,Scattered Clouds,180,2013-09-18 22:54:00
6:54 PM,82.9,66.9,58,29.89,10.0,South,9.2,-,N/A,,Clear,190,2013-09-18 23:54:00
7:54 PM,79.0,68.0,69,29.90,10.0,South,9.2,-,N/A,,Clear,180,2013-09-19 00:54:00
8:54 PM,77.0,68.0,74,29.91,10.0,South,9.2,-,N/A,,Clear,180,2013-09-19 01:54:00
9:54 PM,75.9,66.0,71,29.92,10.0,South,10.4,-,N/A,,Clear,180,2013-09-19 02:54:00
10:54 PM,75.0,66.9,76,29.92,10.0,South,6.9,-,N/A,,Partly Cloudy,170,2013-09-19 03:54:00
11:54 PM,75.0,66.9,76,29.91,10.0,South,9.2,-,N/A,,Scattered Clouds,180,2013-09-19 04:54:00